Chena Hot Springs, Alaska
Current Conditions -  °F | °C
As of 3:58 AM on Friday 19 Dec 2014 (Local Time) from PAEI Reporting Station
Broken Clouds Broken Clouds  
Wind Chill: -11°   Ceiling: 100
Heat Index: -11°   Visibility: 10mi
Dew Point: -17°   Wind: 0mph
Humidity: 77%   Direction: NA
Pressure: 29.36"   Gusts: NA
Location:  65.05°N, 146.06°W
Report Text: PAEI 191258Z AUTO 00000KT 10SM BKN001 M24/M27 A2936 RMK AO2 BKN V SCT SLP961 T12411271 $
Loading
Personal Weather Stations






























Interactive Weather Map New forecast layout! Learn more

10-Day Weather Forecast

Advertisements
Track Severe Weather on mobile